createdAt,value
2023-03-21T00:00:28.704Z,12.48
2023-03-21T00:01:29.032Z,12.30
2023-03-21T00:02:29.323Z,12.20
2023-03-21T00:03:29.666Z,12.19
2023-03-21T00:04:40.930Z,12.08
2023-03-21T00:05:31.310Z,12.06
2023-03-21T00:06:30.521Z,12.05
2023-03-21T00:07:30.838Z,12.09
2023-03-21T00:08:31.095Z,12.15
2023-03-21T00:09:31.449Z,12.21
2023-03-21T00:10:40.356Z,12.26
2023-03-21T00:11:33.045Z,12.30
2023-03-21T00:12:32.363Z,12.30
2023-03-21T00:13:32.939Z,12.34
2023-03-21T00:14:33.025Z,12.38
2023-03-21T00:15:42.521Z,12.39
2023-03-21T00:16:36.438Z,12.42
2023-03-21T00:17:33.880Z,12.42
2023-03-21T00:18:34.166Z,12.39
2023-03-21T00:19:34.453Z,12.39
2023-03-21T00:20:34.811Z,12.41
2023-03-21T00:21:46.517Z,12.41
2023-03-21T00:22:36.416Z,12.42
2023-03-21T00:23:35.744Z,12.42
2023-03-21T00:24:36.064Z,12.44
2023-03-21T00:25:36.512Z,12.46
2023-03-21T00:26:36.578Z,12.46
2023-03-21T00:27:53.377Z,12.39
2023-03-21T00:28:38.227Z,12.30
2023-03-21T00:29:37.526Z,12.24
2023-03-21T00:30:37.827Z,12.21
2023-03-21T00:31:38.158Z,12.16
2023-03-21T00:32:49.264Z,12.16
2023-03-21T00:33:39.783Z,12.13
2023-03-21T00:34:43.310Z,12.11
2023-03-21T00:36:06.945Z,12.06
2023-03-21T00:36:40.823Z,12.08
2023-03-21T00:37:40.045Z,12.08
2023-03-21T00:38:40.320Z,12.09
2023-03-21T00:39:40.655Z,12.09
2023-03-21T00:40:48.805Z,12.04
2023-03-21T00:41:43.430Z,11.97
2023-03-21T00:42:41.615Z,11.94
2023-03-21T00:43:42.021Z,11.89
2023-03-21T00:44:42.189Z,11.89
2023-03-21T00:45:42.487Z,11.93
2023-03-21T00:46:51.588Z,11.94
2023-03-21T00:47:44.226Z,11.89
2023-03-21T00:48:43.432Z,11.86
2023-03-21T00:49:43.764Z,11.86
2023-03-21T00:50:44.063Z,11.90
2023-03-21T00:51:44.372Z,11.94
2023-03-21T00:52:44.666Z,11.86
2023-03-21T00:53:44.972Z,11.86
2023-03-21T00:54:45.271Z,11.85
2023-03-21T00:55:45.589Z,11.82
2023-03-21T00:56:45.914Z,11.83
2023-03-21T00:57:50.153Z,11.78
2023-03-21T00:58:47.702Z,11.78
2023-03-21T00:59:46.837Z,11.72
2023-03-21T01:00:47.241Z,11.72
2023-03-21T01:01:47.453Z,11.75
2023-03-21T01:02:51.860Z,11.75
2023-03-21T01:03:49.197Z,11.70
2023-03-21T01:04:48.323Z,11.65
2023-03-21T01:05:48.609Z,11.61
2023-03-21T01:06:48.979Z,11.56
2023-03-21T01:07:49.246Z,11.52
2023-03-21T01:08:53.576Z,11.52
2023-03-21T01:09:49.884Z,11.49
2023-03-21T01:10:50.166Z,11.53
2023-03-21T01:11:50.513Z,11.52
2023-03-21T01:12:50.765Z,11.50
2023-03-21T01:14:07.678Z,11.53
2023-03-21T01:14:52.385Z,11.47
2023-03-21T01:15:51.746Z,11.46
2023-03-21T01:16:52.145Z,11.49
2023-03-21T01:17:52.300Z,11.50
2023-03-21T01:18:52.593Z,11.54
2023-03-21T01:19:52.877Z,11.57
2023-03-21T01:20:53.174Z,11.62
2023-03-21T01:21:53.487Z,11.64
2023-03-21T01:22:53.765Z,11.68
2023-03-21T01:23:54.077Z,11.72
2023-03-21T01:25:00.626Z,11.71
2023-03-21T01:25:55.699Z,11.67
2023-03-21T01:26:55.022Z,11.67
2023-03-21T01:27:55.335Z,11.68
2023-03-21T01:28:55.653Z,11.71
2023-03-21T01:29:55.948Z,11.68
2023-03-21T01:30:56.278Z,11.70
2023-03-21T01:31:56.610Z,11.71
2023-03-21T01:32:56.783Z,11.71
2023-03-21T01:33:57.131Z,11.74
2023-03-21T01:34:57.481Z,11.77
2023-03-21T01:36:10.237Z,11.78
2023-03-21T01:36:59.126Z,11.78
2023-03-21T01:37:58.296Z,11.83
2023-03-21T01:38:58.671Z,11.86
2023-03-21T01:39:58.820Z,11.87
2023-03-21T01:41:00.468Z,11.83
2023-03-21T01:41:59.402Z,11.70
2023-03-21T01:42:59.670Z,11.70
2023-03-21T01:44:00.058Z,11.68
2023-03-21T01:45:00.374Z,11.75
2023-03-21T01:46:00.711Z,11.80
2023-03-21T01:47:10.924Z,11.82
2023-03-21T01:48:02.293Z,11.82
2023-03-21T01:49:01.467Z,11.83
2023-03-21T01:50:01.958Z,11.86
2023-03-21T01:51:02.097Z,11.87
2023-03-21T01:52:11.578Z,11.86
2023-03-21T01:53:03.709Z,11.83
2023-03-21T01:54:02.985Z,11.72
2023-03-21T01:55:03.302Z,11.68
2023-03-21T01:56:03.583Z,11.70
2023-03-21T01:57:03.856Z,11.72
2023-03-21T01:58:07.140Z,11.71
2023-03-21T01:59:04.483Z,11.74
2023-03-21T02:00:04.814Z,11.78
2023-03-21T02:01:05.194Z,11.74
2023-03-21T02:02:05.390Z,11.71
2023-03-21T02:03:21.010Z,11.71
2023-03-21T02:04:07.006Z,11.68
2023-03-21T02:05:06.224Z,11.67
2023-03-21T02:06:06.556Z,11.67
2023-03-21T02:07:06.728Z,11.65
2023-03-21T02:08:07.053Z,11.64
2023-03-21T02:09:07.386Z,11.65
2023-03-21T02:10:07.696Z,11.65
2023-03-21T02:11:08.008Z,11.65
2023-03-21T02:12:08.289Z,11.62
2023-03-21T02:13:08.554Z,11.62
2023-03-21T02:14:08.940Z,11.62
2023-03-21T02:15:09.435Z,11.59
2023-03-21T02:16:09.464Z,11.57
2023-03-21T02:17:09.757Z,11.61
2023-03-21T02:18:10.970Z,11.59
2023-03-21T02:19:11.523Z,11.59
2023-03-21T02:20:10.693Z,11.61
2023-03-21T02:21:10.981Z,11.62
2023-03-21T02:22:32.295Z,11.65
2023-03-21T02:23:11.481Z,11.65
2023-03-21T02:24:11.826Z,11.68
2023-03-21T02:25:21.280Z,11.70
2023-03-21T02:26:13.354Z,11.74
2023-03-21T02:27:12.659Z,11.70
2023-03-21T02:28:12.950Z,11.72
2023-03-21T02:29:13.259Z,11.72
2023-03-21T02:30:20.159Z,11.75
2023-03-21T02:31:14.854Z,11.75
2023-03-21T02:32:22.762Z,11.71
2023-03-21T02:33:15.476Z,11.68
2023-03-21T02:34:14.762Z,11.71
2023-03-21T02:35:15.033Z,11.62
2023-03-21T02:36:15.424Z,11.54
2023-03-21T02:37:38.672Z,11.46
2023-03-21T02:38:15.862Z,11.41
2023-03-21T02:39:37.183Z,11.29
2023-03-21T02:40:16.366Z,11.27
2023-03-21T02:41:19.509Z,11.24
2023-03-21T02:42:17.044Z,11.20
2023-03-21T02:43:23.265Z,11.28
2023-03-21T02:44:39.628Z,11.28
2023-03-21T02:45:17.874Z,11.34
2023-03-21T02:46:18.230Z,11.36
2023-03-21T02:47:18.441Z,11.38
2023-03-21T02:48:27.897Z,11.41
2023-03-21T02:49:20.868Z,11.43
2023-03-21T02:50:20.066Z,11.44
2023-03-21T02:51:19.566Z,11.49
2023-03-21T02:52:32.072Z,11.50
2023-03-21T02:53:21.140Z,11.54
2023-03-21T02:54:47.839Z,11.54
2023-03-21T02:55:21.720Z,11.57
2023-03-21T02:56:21.070Z,11.57
2023-03-21T02:57:24.065Z,11.62
2023-03-21T02:58:42.515Z,11.62
2023-03-21T02:59:21.772Z,11.64
2023-03-21T03:00:22.077Z,11.65
2023-03-21T03:01:43.430Z,11.62
2023-03-21T03:02:43.662Z,11.62
2023-03-21T03:03:33.467Z,11.62
2023-03-21T03:04:45.192Z,11.61
2023-03-21T03:05:23.462Z,11.53
2023-03-21T03:06:44.823Z,11.39
2023-03-21T03:07:24.066Z,11.29
2023-03-21T03:08:37.609Z,11.17
2023-03-21T03:09:25.678Z,11.09
2023-03-21T03:10:46.004Z,11.13
2023-03-21T03:11:46.265Z,11.19
2023-03-21T03:12:26.473Z,11.24
2023-03-21T03:13:46.766Z,11.27
2023-03-21T03:14:41.927Z,11.19
2023-03-21T03:15:48.400Z,11.19
2023-03-21T03:16:26.656Z,11.17
2023-03-21T03:17:28.461Z,11.14
2023-03-21T03:18:27.429Z,11.13
2023-03-21T03:19:27.442Z,11.09
2023-03-21T03:20:48.762Z,11.09
2023-03-21T03:21:28.021Z,11.09
2023-03-21T03:22:29.185Z,11.14
2023-03-21T03:23:49.658Z,11.16
2023-03-21T03:24:28.866Z,11.19
2023-03-21T03:25:41.723Z,11.21
2023-03-21T03:26:51.518Z,11.24
2023-03-21T03:27:29.821Z,11.28
2023-03-21T03:28:51.112Z,11.31
2023-03-21T03:29:52.422Z,11.32
2023-03-21T03:30:41.230Z,11.35
2023-03-21T03:31:32.046Z,11.32
2023-03-21T03:32:31.355Z,11.34
2023-03-21T03:33:31.644Z,11.27
2023-03-21T03:34:31.979Z,11.21
2023-03-21T03:36:04.464Z,11.20
2023-03-21T03:36:34.491Z,11.24
2023-03-21T03:37:53.734Z,11.28
2023-03-21T03:38:33.101Z,11.31
2023-03-21T03:40:49.701Z,11.34
2023-03-21T03:42:15.433Z,11.35
2023-03-21T03:42:50.529Z,11.39
2023-03-21T03:43:49.730Z,11.39
2023-03-21T03:44:50.008Z,11.43
2023-03-21T03:45:50.316Z,11.41
2023-03-21T03:46:50.661Z,11.46
2023-03-21T03:47:57.060Z,11.41
2023-03-21T03:48:52.126Z,11.36
2023-03-21T03:49:51.462Z,11.35
2023-03-21T03:50:51.753Z,11.34
2023-03-21T03:51:52.097Z,11.34
2023-03-21T03:52:57.046Z,11.36
2023-03-21T03:53:53.672Z,11.36
2023-03-21T03:54:52.999Z,11.34
2023-03-21T03:55:53.614Z,11.35
2023-03-21T03:56:53.593Z,11.38
2023-03-21T03:57:53.911Z,11.39
2023-03-21T03:58:54.131Z,11.35
2023-03-21T03:59:54.459Z,11.19
2023-03-21T04:00:54.811Z,11.07
2023-03-21T04:01:55.100Z,11.01
2023-03-21T04:02:55.411Z,10.98
2023-03-21T04:04:07.014Z,10.99
2023-03-21T04:04:57.029Z,11.02
2023-03-21T04:05:56.326Z,11.03
2023-03-21T04:06:58.040Z,11.07
2023-03-21T04:07:56.888Z,11.10
2023-03-21T04:08:58.959Z,11.13
2023-03-21T04:09:57.529Z,11.16
2023-03-21T04:10:57.782Z,11.21
2023-03-21T04:11:58.115Z,11.21
2023-03-21T04:12:58.424Z,11.25
2023-03-21T04:13:58.763Z,11.19
2023-03-21T04:15:09.601Z,11.13
2023-03-21T04:16:00.455Z,11.13
2023-03-21T04:16:59.688Z,11.14
2023-03-21T04:18:00.027Z,11.19
2023-03-21T04:19:00.296Z,11.11
2023-03-21T04:20:10.899Z,11.06
2023-03-21T04:21:01.933Z,10.89
2023-03-21T04:22:01.266Z,10.86
2023-03-21T04:23:01.573Z,10.86
2023-03-21T04:24:01.892Z,10.81
2023-03-21T04:25:02.201Z,10.84
2023-03-21T04:26:02.608Z,10.91
2023-03-21T04:27:02.725Z,10.96
2023-03-21T04:28:03.101Z,11.01
2023-03-21T04:29:03.382Z,11.01
2023-03-21T04:30:03.660Z,11.07
2023-03-21T04:31:11.095Z,11.10
2023-03-21T04:32:05.274Z,11.11
2023-03-21T04:33:04.601Z,11.13
2023-03-21T04:34:04.984Z,11.11
2023-03-21T04:35:05.299Z,10.96
2023-03-21T04:36:05.513Z,10.81
2023-03-21T04:37:05.732Z,10.76
2023-03-21T04:38:06.042Z,10.68
2023-03-21T04:39:06.360Z,10.68
2023-03-21T04:40:06.884Z,10.66
2023-03-21T04:41:06.975Z,10.68
2023-03-21T04:42:08.735Z,10.63
2023-03-21T04:43:08.801Z,10.62
2023-03-21T04:44:07.937Z,10.55
2023-03-21T04:45:09.558Z,10.47
2023-03-21T04:46:08.588Z,10.53
2023-03-21T04:47:08.786Z,10.46
2023-03-21T04:48:09.148Z,10.46
2023-03-21T04:49:09.426Z,10.47
2023-03-21T04:50:09.823Z,10.47
2023-03-21T04:51:10.010Z,10.51
2023-03-21T04:52:10.322Z,10.56
2023-03-21T04:53:10.669Z,10.60
2023-03-21T04:54:55.539Z,10.71
2023-03-21T04:55:55.719Z,10.66
2023-03-21T04:56:55.886Z,10.59
2023-03-21T04:57:56.152Z,10.55
2023-03-21T04:58:56.473Z,10.47
2023-03-21T04:59:56.794Z,10.52
2023-03-21T05:00:57.133Z,10.52
2023-03-21T05:01:57.455Z,10.42
2023-03-21T05:02:57.746Z,10.37
2023-03-21T05:03:58.129Z,10.34
2023-03-21T05:04:59.271Z,10.34
2023-03-21T05:05:58.634Z,10.34
2023-03-21T05:06:58.915Z,10.30
2023-03-21T05:07:59.115Z,10.26
2023-03-21T05:08:59.479Z,10.24
2023-03-21T05:10:01.304Z,10.19
2023-03-21T05:10:59.962Z,10.19
2023-03-21T05:12:00.193Z,10.22
2023-03-21T05:13:00.512Z,10.21
2023-03-21T05:14:00.796Z,10.21
2023-03-21T05:15:01.027Z,10.26
2023-03-21T05:16:01.340Z,10.30
2023-03-21T05:17:01.758Z,10.36
2023-03-21T05:18:01.966Z,10.40
2023-03-21T05:19:02.228Z,10.39
2023-03-21T05:20:02.453Z,10.40
2023-03-21T05:21:02.861Z,10.43
2023-03-21T05:22:03.093Z,10.52
2023-03-21T05:23:03.374Z,10.55
2023-03-21T05:24:03.622Z,10.55
2023-03-21T05:25:03.808Z,10.51
2023-03-21T05:26:04.207Z,10.52
2023-03-21T05:27:04.440Z,10.52
2023-03-21T05:28:04.676Z,10.55
2023-03-21T05:29:04.917Z,10.47
2023-03-21T05:30:05.198Z,10.43
2023-03-21T05:31:05.482Z,10.40
2023-03-21T05:32:05.693Z,10.36
2023-03-21T05:33:05.942Z,10.32
2023-03-21T05:34:06.170Z,10.33
2023-03-21T05:35:06.433Z,10.39
2023-03-21T05:36:06.824Z,10.40
2023-03-21T05:37:07.069Z,10.44
2023-03-21T05:38:07.307Z,10.47
2023-03-21T05:39:07.636Z,10.52
2023-03-21T05:40:08.015Z,10.53
2023-03-21T05:41:08.295Z,10.52
2023-03-21T05:42:08.508Z,10.52
2023-03-21T05:43:08.785Z,10.43
2023-03-21T05:44:08.994Z,10.42
2023-03-21T05:45:09.279Z,10.42
2023-03-21T05:46:09.560Z,10.40
2023-03-21T05:47:09.812Z,10.39
2023-03-21T05:48:10.061Z,10.36
2023-03-21T05:49:10.341Z,10.36
2023-03-21T05:50:10.652Z,10.36
2023-03-21T05:51:10.904Z,10.37
2023-03-21T05:52:11.189Z,10.37
2023-03-21T05:53:11.415Z,10.36
2023-03-21T05:54:11.686Z,10.30
2023-03-21T05:55:12.360Z,10.25
2023-03-21T05:56:12.201Z,10.21
2023-03-21T05:57:12.578Z,10.18
2023-03-21T05:58:12.698Z,10.17
2023-03-21T05:59:12.988Z,10.18
2023-03-21T06:00:13.254Z,10.22
2023-03-21T06:01:13.528Z,10.24
2023-03-21T06:02:13.772Z,10.25
2023-03-21T06:03:14.182Z,10.28
2023-03-21T06:04:14.386Z,10.33
2023-03-21T06:05:14.605Z,10.33
2023-03-21T06:06:15.002Z,10.34
2023-03-21T06:07:15.332Z,10.32
2023-03-21T06:08:15.930Z,10.36
2023-03-21T06:09:15.834Z,10.34
2023-03-21T06:10:16.057Z,10.26
2023-03-21T06:11:16.287Z,10.32
2023-03-21T06:12:16.608Z,10.30
2023-03-21T06:13:16.915Z,10.33
2023-03-21T06:14:17.121Z,10.39
2023-03-21T06:15:23.267Z,10.42
2023-03-21T06:16:18.257Z,10.42
2023-03-21T06:17:17.954Z,10.40
2023-03-21T06:18:18.597Z,10.47
2023-03-21T06:19:18.446Z,10.52
2023-03-21T06:20:18.703Z,10.58
2023-03-21T06:21:18.979Z,10.58
2023-03-21T06:22:19.201Z,10.58
2023-03-21T06:23:19.517Z,10.58
2023-03-21T06:24:19.732Z,10.53
2023-03-21T06:25:19.961Z,10.46
2023-03-21T06:26:20.201Z,10.40
2023-03-21T06:27:20.494Z,10.39
2023-03-21T06:28:21.645Z,10.39
2023-03-21T06:29:21.020Z,10.32
2023-03-21T06:30:21.306Z,10.32
2023-03-21T06:31:22.213Z,10.34
2023-03-21T06:32:21.821Z,10.36
2023-03-21T06:33:22.031Z,10.42
2023-03-21T06:34:22.379Z,10.51
2023-03-21T06:35:22.694Z,10.42
2023-03-21T06:36:23.029Z,10.47
2023-03-21T06:37:23.261Z,10.52
2023-03-21T06:38:23.666Z,10.56
2023-03-21T06:39:24.228Z,10.56
2023-03-21T06:40:24.518Z,10.51
2023-03-21T06:41:24.533Z,10.47
2023-03-21T06:42:24.602Z,10.51
2023-03-21T06:43:24.888Z,10.56
2023-03-21T06:44:25.160Z,10.59
2023-03-21T06:45:25.423Z,10.70
2023-03-21T06:46:25.700Z,10.77
2023-03-21T06:47:25.951Z,10.83
2023-03-21T06:48:26.217Z,10.80
2023-03-21T06:49:26.478Z,10.84
2023-03-21T06:50:26.777Z,10.89
2023-03-21T06:51:27.065Z,10.88
2023-03-21T06:52:27.358Z,10.86
2023-03-21T06:53:27.642Z,10.83
2023-03-21T06:54:27.875Z,10.81
2023-03-21T06:55:28.135Z,10.80
2023-03-21T06:56:28.363Z,10.89
2023-03-21T06:57:28.639Z,11.01
2023-03-21T06:58:28.884Z,11.06
2023-03-21T06:59:29.247Z,11.14
2023-03-21T07:00:29.479Z,11.17
2023-03-21T07:01:29.706Z,11.19
2023-03-21T07:02:30.025Z,11.29
2023-03-21T07:03:30.264Z,11.36
2023-03-21T07:04:30.522Z,11.46
2023-03-21T07:05:30.804Z,11.53
2023-03-21T07:06:31.017Z,11.62
2023-03-21T07:07:31.324Z,11.65
2023-03-21T07:08:31.560Z,11.65
2023-03-21T07:09:31.948Z,11.68
2023-03-21T07:10:34.560Z,11.57
2023-03-21T07:11:36.576Z,11.44
2023-03-21T07:12:32.704Z,11.43
2023-03-21T07:13:36.029Z,11.44
2023-03-21T07:14:33.251Z,11.56
2023-03-21T07:15:39.616Z,11.64
2023-03-21T07:16:33.856Z,11.64
2023-03-21T07:17:34.389Z,11.65
2023-03-21T07:18:34.287Z,11.64
2023-03-21T07:19:34.520Z,11.67
2023-03-21T07:20:35.590Z,11.75
2023-03-21T07:21:36.953Z,11.85
2023-03-21T07:22:36.232Z,11.78
2023-03-21T07:23:37.263Z,11.77
2023-03-21T07:24:38.109Z,11.72
2023-03-21T07:25:36.627Z,11.75
2023-03-21T07:26:36.582Z,11.85
2023-03-21T07:27:38.598Z,11.82
2023-03-21T07:28:37.110Z,11.87
2023-03-21T07:29:37.370Z,11.99
2023-03-21T07:30:39.299Z,12.04
2023-03-21T07:31:38.350Z,12.13
2023-03-21T07:32:38.247Z,12.24
2023-03-21T07:33:38.465Z,12.27
2023-03-21T07:34:40.603Z,12.13
2023-03-21T07:35:39.419Z,12.09
2023-03-21T07:36:39.462Z,12.12
2023-03-21T07:37:40.364Z,12.24
2023-03-21T07:38:39.843Z,12.23
2023-03-21T07:39:40.188Z,12.13
2023-03-21T07:40:40.409Z,12.23
2023-03-21T07:41:43.849Z,12.23
2023-03-21T07:42:40.968Z,12.12
2023-03-21T07:43:42.571Z,12.04
2023-03-21T07:44:41.519Z,12.02
2023-03-21T07:45:42.063Z,12.11
2023-03-21T07:46:42.416Z,12.31
2023-03-21T07:47:43.075Z,12.46
2023-03-21T07:48:44.025Z,12.46
2023-03-21T07:49:43.033Z,12.34
2023-03-21T07:50:43.338Z,12.21
2023-03-21T07:51:45.234Z,12.12
2023-03-21T07:52:43.917Z,12.05
2023-03-21T07:53:44.309Z,12.01
2023-03-21T07:54:46.891Z,12.02
2023-03-21T07:55:45.610Z,12.08
2023-03-21T07:56:45.043Z,12.09
2023-03-21T07:57:46.042Z,12.13
2023-03-21T07:58:45.487Z,12.20
2023-03-21T07:59:46.964Z,12.38
2023-03-21T08:00:46.068Z,12.56
2023-03-21T08:01:46.368Z,12.66
2023-03-21T08:02:46.561Z,12.66
2023-03-21T08:03:47.010Z,12.70
2023-03-21T08:04:47.158Z,12.82
2023-03-21T08:05:47.436Z,12.89
2023-03-21T08:06:47.667Z,12.77
2023-03-21T08:07:47.948Z,12.64
2023-03-21T08:08:48.247Z,12.71
2023-03-21T08:10:09.497Z,12.71
2023-03-21T08:10:48.844Z,12.66
2023-03-21T08:12:10.155Z,12.67
2023-03-21T08:12:49.382Z,12.74
2023-03-21T08:13:52.981Z,12.75
2023-03-21T08:14:49.967Z,12.70
2023-03-21T08:15:50.192Z,12.78
2023-03-21T08:16:50.552Z,12.75
2023-03-21T08:17:50.736Z,12.84
2023-03-21T08:19:12.165Z,12.95
2023-03-21T08:19:51.437Z,13.12
2023-03-21T08:20:51.654Z,13.33
2023-03-21T08:21:58.365Z,13.63
2023-03-21T08:22:52.557Z,13.76
2023-03-21T08:23:52.641Z,13.91
2023-03-21T08:25:13.727Z,13.96
2023-03-21T08:25:53.078Z,14.16
2023-03-21T08:26:57.914Z,14.35
2023-03-21T08:28:15.124Z,14.29
2023-03-21T08:29:14.959Z,13.94
2023-03-21T08:29:54.220Z,13.70
2023-03-21T08:30:55.079Z,13.70
2023-03-21T08:31:55.033Z,13.63
2023-03-21T08:32:55.662Z,13.51
2023-03-21T08:33:55.812Z,13.44
2023-03-21T08:34:56.163Z,13.36
2023-03-21T08:35:56.476Z,13.41
2023-03-21T08:36:56.885Z,13.40
2023-03-21T08:37:57.624Z,13.37
2023-03-21T08:38:57.399Z,13.36
2023-03-21T08:39:57.073Z,13.38
2023-03-21T08:41:00.126Z,13.37
2023-03-21T08:41:57.776Z,13.36
2023-03-21T08:42:57.856Z,13.29
2023-03-21T08:43:58.097Z,13.25
2023-03-21T08:44:58.416Z,13.30
2023-03-21T08:46:20.676Z,13.43
2023-03-21T08:46:59.322Z,13.62
2023-03-21T08:48:20.574Z,13.76
2023-03-21T08:48:59.388Z,13.87
2023-03-21T08:49:59.887Z,13.81
2023-03-21T08:51:00.500Z,13.88
2023-03-21T08:52:00.798Z,13.98
2023-03-21T08:53:21.361Z,13.91
2023-03-21T08:54:21.620Z,13.98
2023-03-21T08:55:01.264Z,13.98
2023-03-21T08:56:22.141Z,13.92
2023-03-21T08:57:01.341Z,13.81
2023-03-21T08:58:01.608Z,13.81
2023-03-21T08:59:22.964Z,13.81
2023-03-21T09:00:02.158Z,13.91
2023-03-21T09:01:03.007Z,14.02
2023-03-21T09:02:24.285Z,14.14
2023-03-21T09:03:03.150Z,14.28
2023-03-21T09:04:24.530Z,14.39
2023-03-21T09:05:04.078Z,14.49
2023-03-21T09:06:05.915Z,14.60
2023-03-21T09:07:04.251Z,14.65
2023-03-21T09:08:04.543Z,14.67
2023-03-21T09:09:25.786Z,14.71
2023-03-21T09:10:22.152Z,14.74
2023-03-21T09:11:27.490Z,14.81
2023-03-21T09:12:05.759Z,14.74
2023-03-21T09:13:06.036Z,14.68
2023-03-21T09:14:28.979Z,14.52
2023-03-21T09:15:06.607Z,14.49
2023-03-21T09:16:06.949Z,14.53
2023-03-21T09:17:28.327Z,14.35
2023-03-21T09:18:07.320Z,14.28
2023-03-21T09:19:08.224Z,14.25
2023-03-21T09:20:07.970Z,14.25
2023-03-21T09:21:08.288Z,14.24
2023-03-21T09:22:08.646Z,14.25
2023-03-21T09:23:30.456Z,14.34
2023-03-21T09:24:08.968Z,14.34
2023-03-21T09:25:30.645Z,14.31
2023-03-21T09:26:30.905Z,14.35
2023-03-21T09:27:09.808Z,14.38
2023-03-21T09:28:10.055Z,14.43
2023-03-21T09:29:10.811Z,14.35
2023-03-21T09:30:10.734Z,14.28
2023-03-21T09:31:32.033Z,14.25
2023-03-21T09:32:12.224Z,14.17
2023-03-21T09:33:11.559Z,14.24
2023-03-21T09:34:32.858Z,14.32
2023-03-21T09:35:12.053Z,14.44
2023-03-21T09:36:33.334Z,14.47
2023-03-21T09:37:33.522Z,14.44
2023-03-21T09:38:14.080Z,14.39
2023-03-21T09:39:13.309Z,14.42
2023-03-21T09:40:13.362Z,14.47
2023-03-21T09:41:34.819Z,14.42
2023-03-21T09:42:15.448Z,14.31
2023-03-21T09:43:14.501Z,14.24
2023-03-21T09:44:14.445Z,14.16
2023-03-21T09:45:14.690Z,14.25
2023-03-21T09:46:15.058Z,14.29
2023-03-21T09:47:15.281Z,14.39
2023-03-21T09:48:39.661Z,14.47
2023-03-21T09:49:16.885Z,14.60
2023-03-21T09:50:16.193Z,14.71
2023-03-21T09:51:16.872Z,14.72
2023-03-21T09:52:16.708Z,14.68
2023-03-21T09:53:17.009Z,14.60
2023-03-21T09:54:17.730Z,14.52
2023-03-21T09:55:17.587Z,14.52
2023-03-21T09:56:17.837Z,14.57
2023-03-21T09:57:18.060Z,14.64
2023-03-21T09:58:18.315Z,14.78
2023-03-21T09:59:39.607Z,14.80
2023-03-21T10:00:18.876Z,14.83
2023-03-21T10:01:19.100Z,14.86
2023-03-21T10:02:40.335Z,14.93
2023-03-21T10:03:19.668Z,14.94
2023-03-21T10:04:19.962Z,14.95
2023-03-21T10:05:20.211Z,15.01
2023-03-21T10:06:20.488Z,14.99
2023-03-21T10:07:20.894Z,14.88
2023-03-21T10:08:21.024Z,14.87
2023-03-21T10:09:42.391Z,14.87
2023-03-21T10:10:21.677Z,14.74
2023-03-21T10:11:42.906Z,14.65
2023-03-21T10:12:22.123Z,14.62
2023-03-21T10:13:22.427Z,14.64
2023-03-21T10:14:43.732Z,14.64
2023-03-21T10:15:23.013Z,14.68
2023-03-21T10:16:23.242Z,14.72
2023-03-21T10:17:23.523Z,14.69
2023-03-21T10:18:24.686Z,14.72
2023-03-21T10:19:24.040Z,14.80
2023-03-21T10:20:24.312Z,14.69
2023-03-21T10:21:51.265Z,14.61
2023-03-21T10:22:25.911Z,14.60
2023-03-21T10:23:46.180Z,14.52
2023-03-21T10:24:46.530Z,14.53
2023-03-21T10:25:27.220Z,14.49
2023-03-21T10:26:26.107Z,14.37
2023-03-21T10:27:26.429Z,14.32
2023-03-21T10:28:26.663Z,14.34
2023-03-21T10:29:26.957Z,14.31
2023-03-21T10:30:27.247Z,14.34
2023-03-21T10:31:27.577Z,14.38
2023-03-21T10:32:27.802Z,14.49
2023-03-21T10:33:28.086Z,14.60
2023-03-21T10:34:28.339Z,14.67
2023-03-21T10:35:28.652Z,14.72
2023-03-21T10:36:28.922Z,14.83
2023-03-21T10:37:29.195Z,14.81
2023-03-21T10:38:29.471Z,14.78
2023-03-21T10:39:29.714Z,14.86
2023-03-21T10:40:30.029Z,14.94
2023-03-21T10:41:30.223Z,15.02
2023-03-21T10:42:30.497Z,15.03
2023-03-21T10:43:30.768Z,15.03
2023-03-21T10:44:31.041Z,15.05
2023-03-21T10:45:31.352Z,15.05
2023-03-21T10:46:32.987Z,14.90
2023-03-21T10:47:32.130Z,14.71
2023-03-21T10:48:32.212Z,14.67
2023-03-21T10:49:40.176Z,14.67
2023-03-21T10:50:33.681Z,14.72
2023-03-21T10:51:32.918Z,14.64
2023-03-21T10:52:33.180Z,14.42
2023-03-21T10:53:33.458Z,14.37
2023-03-21T10:54:33.706Z,14.43
2023-03-21T10:55:33.933Z,14.52
2023-03-21T10:56:34.291Z,14.56
2023-03-21T10:57:34.574Z,14.62
2023-03-21T10:58:34.893Z,14.67
2023-03-21T10:59:35.163Z,14.65
2023-03-21T11:00:35.450Z,14.61
2023-03-21T11:01:35.753Z,14.60
2023-03-21T11:02:36.034Z,14.60
2023-03-21T11:03:36.250Z,14.60
2023-03-21T11:04:36.500Z,14.62
2023-03-21T11:05:37.257Z,14.65
2023-03-21T11:06:37.063Z,14.71
2023-03-21T11:07:37.349Z,14.78
2023-03-21T11:08:37.551Z,14.74
2023-03-21T11:09:37.796Z,14.62
2023-03-21T11:10:38.213Z,14.43
2023-03-21T11:11:38.809Z,14.32
2023-03-21T11:12:38.621Z,14.32
2023-03-21T11:13:39.625Z,14.29
2023-03-21T11:14:39.256Z,14.37
2023-03-21T11:15:39.798Z,14.43
2023-03-21T11:16:40.993Z,14.46
2023-03-21T11:17:39.979Z,14.46
2023-03-21T11:18:40.291Z,14.46
2023-03-21T11:19:40.509Z,14.43
2023-03-21T11:20:40.882Z,14.35
2023-03-21T11:21:41.091Z,14.37
2023-03-21T11:22:41.376Z,14.46
2023-03-21T11:23:41.641Z,14.47
2023-03-21T11:24:41.941Z,14.53
2023-03-21T11:25:42.190Z,14.56
2023-03-21T11:26:42.474Z,14.50
2023-03-21T11:27:42.658Z,14.39
2023-03-21T11:28:42.924Z,14.44
2023-03-21T11:29:43.228Z,14.46
2023-03-21T11:30:43.501Z,14.50
2023-03-21T11:31:43.732Z,14.35
